• Join FlightAware (Why Join?)
  • Login
  • US Flag 
11:23PM EDT


 

Airport Tracker/Info


-or-


 

Live Flight TrackerFlight Track Log ✈ SWA709 ✈ 25-Apr-2013 ✈ KAUS - KLAS

Flight Track Log - Related Links

Times and Time Zones

All times are in EDT time to prevent confusion due to time zone crossing. See the SWA709 flight status page for this flight to view local times or setup timezone preferences in your user account.

Time Position Orientation Groundspeed Altitude Reporting Facility
EDT Latitude Longitude Course Direction KTS MPH feet Rate Location/Type
07:27AM 30.2694 -97.7558 278° West 236 272 5,700  Level Houston Center
07:28AM 30.2789 -97.8436 277° West 268 308 9,200 2,820 Climbing Houston Center
07:30AM 30.2933 -97.9561 278° West 301 346 11,500 2,700 Climbing Houston Center
07:31AM 30.3147 -98.0744 282° West 367 422 14,700 3,000 Climbing Houston Center
07:32AM 30.4167 -97.9804 270° West  Level FlightAware Approximate
07:32AM 30.3353 -98.1956 281° West 373 429 17,700  Level Houston Center
07:33AM 30.4286 -98.1011 278° West  Level FlightAware Approximate
07:33AM 30.3567 -98.3194 281° West 385 443 20,100  Level Houston Center
07:34AM 30.3775 -98.4439 281° West 390 449 22,600 2,220 Climbing Houston Center
07:35AM 30.3969 -98.5722 280° West 399 459 24,700 1,920 Climbing Houston Center
07:36AM 30.4194 -98.7047 281° West 412 474 26,600 1,740 Climbing Houston Center
07:37AM 30.4425 -98.8386 281° West 419 482 28,300 1,860 Climbing Houston Center
07:38AM 30.4656 -98.9725 281° West 419 482 30,500 1,920 Climbing Houston Center
07:39AM 30.4856 -99.1036 280° West 410 472 32,300 1,620 Climbing Houston Center
07:40AM 30.5058 -99.2267 281° West 405 466 33,800 1,620 Climbing Houston Center
07:41AM 30.5264 -99.3531 281° West 399 459 35,700 1,800 Climbing Houston Center
07:42AM 30.5458 -99.4722 281° West 381 438 37,500 1,080 Climbing Houston Center
07:43AM 30.5636 -99.5883 280° West 369 425 38,000 240 Climbing Houston Center
07:44AM 30.5814 -99.7056 280° West 370 426 38,000  Level Houston Center
07:45AM 30.5994 -99.8225 280° West 370 426 38,000  Level Houston Center
07:46AM 30.6172 -99.9628 278° West 370 426 38,000  Level Houston Center
07:47AM 30.6306 -100.0806 278° West 371 427 38,000  Level Houston Center
07:48AM 30.6444 -100.1961 278° West 367 422 38,000  Level Houston Center
07:49AM 30.6592 -100.3150 278° West 374 430 38,000  Level Houston Center
07:50AM 30.6739 -100.4294 279° West 366 421 38,000  Level Houston Center
07:51AM 30.6872 -100.5472 278° West 369 425 38,000  Level Houston Center
07:52AM 30.7008 -100.6672 278° West 376 433 38,000  Level Houston Center
07:53AM 30.7139 -100.7836 277° West 371 427 38,000  Level Houston Center
07:54AM 30.7275 -100.9011 278° West 372 428 38,000  Level Houston Center
07:55AM 30.7436 -101.0439 278° West 375 432 38,000  Level Houston Center
07:56AM 30.7586 -101.1622 278° West 373 429 38,000  Level Houston Center
07:57AM 30.7725 -101.2803 278° West 372 428 38,000  Level Houston Center
07:58AM 30.7850 -101.4006 277° West 376 433 38,000  Level Houston Center
07:59AM 30.7981 -101.5203 277° West 375 432 38,000  Level Houston Center
08:00AM 30.8125 -101.6456 278° West 370 426 38,000  Level Houston Center
08:00AM 30.8153 -101.6672 278° West 369 425 38,000  Level Albuquerque Center
08:01AM 30.8281 -101.7856 277° West 369 425 38,000  Level Albuquerque Center
08:02AM 30.8403 -101.9039 277° West 367 422 38,000  Level Albuquerque Center
08:03AM 30.8536 -102.0206 278° West 366 421 38,000  Level Albuquerque Center
08:04AM 30.8650 -102.1386 276° West 365 420 38,000  Level Albuquerque Center
08:05AM 30.8775 -102.2564 277° West 365 420 38,000  Level Albuquerque Center
08:06AM 30.8897 -102.3756 277° West 367 422 38,000  Level Albuquerque Center
08:07AM 30.9028 -102.4947 277° West 369 425 38,000  Level Albuquerque Center
08:08AM 30.9353 -102.6117 288° West 378 435 38,000  Level Albuquerque Center
08:09AM 30.9731 -102.7267 291° West 378 435 38,000  Level Albuquerque Center
08:10AM 31.0119 -102.8431 291° West 381 438 38,000  Level Albuquerque Center
08:11AM 31.0503 -102.9569 291° West 380 437 38,000  Level Albuquerque Center
08:12AM 31.0961 -103.0958 291° West 381 438 38,000  Level Albuquerque Center
08:13AM 31.1331 -103.2100 291° West 379 436 38,000  Level Albuquerque Center
08:14AM 31.1719 -103.3228 292° West 376 433 38,000  Level Albuquerque Center
08:15AM 31.2075 -103.4358 290° West 373 429 38,000  Level Albuquerque Center
08:16AM 31.2444 -103.5503 291° West 376 433 38,000  Level Albuquerque Center
08:17AM 31.2814 -103.6639 291° West 377 434 38,000  Level Albuquerque Center
08:18AM 31.3178 -103.7731 291° West 377 434 38,000  Level Albuquerque Center
08:20AM 31.3533 -103.8875 290° West 378 435 38,000  Level Albuquerque Center
08:21AM 31.3911 -104.0019 291° West 378 435 38,000  Level Albuquerque Center
08:22AM 31.4289 -104.1164 291° West 378 435 38,000  Level Albuquerque Center
08:23AM 31.4656 -104.2300 291° West 376 433 38,000  Level Albuquerque Center
08:24AM 31.5008 -104.3428 290° West 374 430 38,000  Level Albuquerque Center
08:25AM 31.5372 -104.4550 291° West 372 428 38,000  Level Albuquerque Center
08:26AM 31.5725 -104.5658 291° West 369 425 38,000  Level Albuquerque Center
08:27AM 31.6078 -104.6769 290° West 366 421 38,000  Level Albuquerque Center
08:28AM 31.6436 -104.7886 291° West 367 422 38,000  Level Albuquerque Center
08:29AM 31.6783 -104.9000 290° West 367 422 38,000  Level Albuquerque Center
08:30AM 31.7203 -105.0353 290° West 369 425 38,000  Level Albuquerque Center
08:31AM 31.7567 -105.1489 291° West 373 429 38,000  Level Albuquerque Center
08:32AM 31.7911 -105.2628 290° West 372 428 38,000  Level Albuquerque Center
08:33AM 31.8264 -105.3800 290° West 380 437 38,000  Level Albuquerque Center
08:34AM 31.8614 -105.4931 290° West 373 429 38,000  Level Albuquerque Center
08:35AM 31.8956 -105.6069 289° West 371 427 38,000  Level Albuquerque Center
08:36AM 31.9308 -105.7217 290° West 375 432 38,000  Level Albuquerque Center
08:37AM 31.9656 -105.8358 290° West 373 429 38,000  Level Albuquerque Center
08:38AM 32.0003 -105.9464 290° West 374 430 38,000  Level Albuquerque Center
08:39AM 32.0344 -106.0617 289° West 374 430 38,000  Level Albuquerque Center
08:40AM 32.0697 -106.1778 290° West 376 433 38,000  Level Albuquerque Center
08:41AM 32.1044 -106.2928 290° West 375 432 38,000  Level Albuquerque Center
08:42AM 32.1394 -106.4106 289° West 380 437 38,000  Level Albuquerque Center
08:43AM 32.1742 -106.5264 290° West 376 433 38,000  Level Albuquerque Center
08:44AM 32.2089 -106.6442 289° West 378 435 38,000  Level Albuquerque Center
08:45AM 32.2436 -106.7606 289° West 377 434 38,000  Level Albuquerque Center
08:46AM 32.2867 -106.8967 291° West 376 433 38,000  Level Albuquerque Center
08:47AM 32.3583 -106.9967 310° West 398 458 38,000  Level Albuquerque Center
08:48AM 32.4336 -107.0961 312° West 403 464 38,000  Level Albuquerque Center
08:49AM 32.5100 -107.2008 311° West 405 466 38,000  Level Albuquerque Center
08:50AM 32.5703 -107.2844 311° West 402 463 38,000  Level Albuquerque Center
08:51AM 32.6586 -107.4019 312° West 402 463 38,000  Level Albuquerque Center
08:52AM 32.7208 -107.4869 311° West 400 460 38,000  Level Albuquerque Center
08:53AM 32.7939 -107.5861 311° West 398 458 38,000  Level Albuquerque Center
08:54AM 32.8658 -107.6836 311° West 395 455 38,000  Level Albuquerque Center
08:55AM 32.9392 -107.7822 312° West 397 457 38,000  Level Albuquerque Center
08:56AM 33.0108 -107.8819 311° West 398 458 38,000  Level Albuquerque Center
08:57AM 33.0847 -107.9803 312° West 398 458 38,000  Level Albuquerque Center
08:58AM 33.1725 -108.0994 311° West 398 458 38,000  Level Albuquerque Center
08:59AM 33.2342 -108.1853 311° West 398 458 38,000  Level Albuquerque Center
09:00AM 33.3058 -108.2836 311° West 397 457 38,000  Level Albuquerque Center
09:01AM 33.3911 -108.4003 311° West 394 453 38,000  Level Albuquerque Center
09:02AM 33.4611 -108.4983 311° West 394 453 38,000  Level Albuquerque Center
09:03AM 33.5333 -108.5972 311° West 397 457 38,000  Level Albuquerque Center
09:04AM 33.6061 -108.6975 311° West 400 460 38,000  Level Albuquerque Center
09:05AM 33.6772 -108.7981 310° West 401 461 38,000  Level Albuquerque Center
09:06AM 33.7500 -108.9008 310° West 405 466 38,000  Level Albuquerque Center
09:07AM 33.8222 -109.0033 310° West 406 467 38,000  Level Albuquerque Center
09:08AM 33.8944 -109.1042 311° West 405 466 38,000  Level Albuquerque Center
09:09AM 33.9669 -109.2067 310° West 405 466 38,000  Level Albuquerque Center
09:10AM 34.0547 -109.3311 310° West 408 470 38,000  Level Albuquerque Center
09:11AM 34.1269 -109.4331 311° West 407 468 38,000  Level Albuquerque Center
09:12AM 34.1975 -109.5342 310° West 406 467 38,000  Level Albuquerque Center
09:13AM 34.2689 -109.6361 310° West 409 471 38,000  Level Albuquerque Center
09:14AM 34.3519 -109.7572 310° West 414 476 38,000  Level Albuquerque Center
09:15AM 34.4225 -109.8592 310° West 413 475 38,000  Level Albuquerque Center
09:16AM 34.4928 -109.9597 310° West 409 471 38,000  Level Albuquerque Center
09:17AM 34.5753 -110.0808 310° West 412 474 38,000  Level Albuquerque Center
09:18AM 34.6475 -110.1853 310° West 418 481 38,000  Level Albuquerque Center
09:19AM 34.7208 -110.2917 310° West 424 488 38,000  Level Albuquerque Center
09:20AM 34.8047 -110.4147 310° West 423 487 38,000  Level Albuquerque Center
09:21AM 34.8744 -110.5169 310° West 416 479 38,000  Level Albuquerque Center
09:22AM 34.9422 -110.6197 309° West 411 473 38,000  Level Albuquerque Center
09:23AM 35.0239 -110.7394 310° West 409 471 38,000  Level Albuquerque Center
09:24AM 35.0864 -110.8486 305° West 413 475 38,000  Level Albuquerque Center
09:25AM 35.1428 -110.9603 302° West 407 468 38,000  Level Albuquerque Center
09:26AM 35.2078 -111.0919 301° West 407 468 38,000  Level Albuquerque Center
09:27AM 35.2653 -111.2150 300° West 415 478 38,000  Level Albuquerque Center
09:28AM 35.3197 -111.3239 302° West 408 470 38,000  Level Albuquerque Center
09:29AM 35.3800 -111.4492 301° West 414 476 38,000  Level Albuquerque Center
09:30AM 35.4383 -111.5711 300° West 419 482 38,000 -240 Level Albuquerque Center
09:31AM 35.4972 -111.6914 301° West 416 479 37,600 -660 Descending Albuquerque Center
09:32AM 35.5556 -111.8142 300° West 418 481 36,700 -840 Descending Albuquerque Center
09:33AM 35.5933 -111.9497 289° West 427 491 36,000 -360 Descending Albuquerque Center
09:34AM 35.5961 -112.0881 271° West 410 472 36,000  Level Albuquerque Center
09:35AM 35.6006 -112.2253 272° West 407 468 36,000  Level Los Angeles Center
09:36AM 35.6039 -112.3869 271° West 400 460 36,000  Level Albuquerque Center
09:37AM 35.6061 -112.4964 271° West 402 463 36,000  Level Los Angeles Center
09:38AM 35.6100 -112.6525 272° West 400 460 36,000  Level Los Angeles Center
09:39AM 35.6128 -112.7889 271° West 400 460 36,000 -900 Level Los Angeles Center
09:40AM 35.6153 -112.9258 271° West 399 459 34,200 -1,800 Descending Los Angeles Center
09:41AM 35.6175 -113.0472 271° West 395 455 32,400 -2,100 Descending Los Angeles Center
09:42AM 35.6197 -113.2042 271° West 387 445 29,900 -2,100 Descending Los Angeles Center
09:43AM 35.6214 -113.3144 271° West 378 435 28,200 -1,980 Descending Los Angeles Center
09:44AM 35.6231 -113.4578 271° West 356 410 25,900 -2,040 Descending Los Angeles Center
09:45AM 35.6278 -113.5750 273° West 346 398 24,100 -1,680 Descending Los Angeles Center
09:47AM 35.6456 -113.6911 281° West 348 400 22,500 -1,740 Descending Los Angeles Center
09:48AM 35.6642 -113.8183 280° West 375 432 20,600 -2,100 Descending Los Angeles Center
09:49AM 35.6825 -113.9486 280° West 387 445 18,200 -2,400 Descending Los Angeles Center
09:50AM 35.6992 -114.0758 279° West 379 436 15,800 -2,460 Descending Los Angeles Center
09:50AM 35.7106 -114.1744 278° West 372 428 14,000 -2,520 Descending Los Angeles Center
09:51AM 35.7203 -114.2206 285° West 366 421 13,200 -1,440 Descending Los Angeles Center
09:52AM 35.7356 -114.3381 279° West 351 404 12,100 -600 Descending Los Angeles Center
09:53AM 35.7917 -114.4050 316° Northwest 310 357 12,000 -120 Descending Los Angeles Center
09:54AM 35.8756 -114.4453 339° North 300 345 11,900 -720 Descending Los Angeles Center
09:55AM 35.9464 -114.4775 340° North 296 341 10,600 -960 Descending Los Angeles Center
09:56AM 36.0231 -114.5150 338° Northwest 268 308 10,000 -420 Descending Los Angeles Center
09:57AM 36.0486 -114.5811 296° West 255 293 9,900 -660 Descending Los Angeles Center
09:58AM 36.0672 -114.6839 283° West 250 288 8,700 -960 Descending Los Angeles Center
09:58AM 36.0758 -114.7425 280° West 249 287 8,100 -720 Descending Los Angeles Center
09:59AM 36.0783 -114.7672 277° West 249 287 8,000 -1,440 Descending Los Angeles Center
10:00AM 36.0775 -114.8483 269° West 254 292 6,400 -1,500 Descending Los Angeles Center
10:01AM 36.0778 -114.9386 270° West 219 252 5,000 -1,140 Descending Los Angeles Center
10:02AM 36.0772 -115.0056 269° West 193 222 4,000 -960 Descending Los Angeles Center
10:03AM 36.0756 -115.0567 268° West 166 191 3,200 -900 Descending Los Angeles Center
10:04AM 36.0753 -115.1153 270° West 146 168 2,300 -840 Descending Los Angeles Center
10:06AM 36.0667 -115.1500 270° West  Level FlightAware Approximate